Independent Accord — A8MM4 — position and weather

sailwx.info

Track history (hours):
 
Tides and Currents Weather Stations Pressure Air Temp Water Temp Dewpoint Dewpoint Depression Visibility Wind Speed Wind Dir Waves Ship Positions

Independent Accord

Last reported at 2018-Jan-21 12:12 UTC. Time now 2018-Jan-22 02:41 UTC.
Position N 37°54' E 025°48'.

Length 167 m; draft 8.4 m.

Type: Ship (hazmat cat A). MMSI: 636091353.

Date/timePositionNaut miles runAvg speedWind from/ knotsBaromVisibWave heightAir tempDewpointWater temp
2018-Jan-21 12:12N 37°54' E 025°48'419.2
2018-Jan-21 12:00N 37°50' E 025°49'1119.2
2018-Jan-21 11:26N 37°39' E 025°50'818.4
2018-Jan-21 11:01N 37°32' E 025°51'918.3
2018-Jan-21 10:30N 37°23' E 025°57'918.2
2018-Jan-21 10:00N 37°15' E 026°02'918.4
2018-Jan-21 09:30N 37°07' E 026°07'1019.0
2018-Jan-21 09:00N 36°59' E 026°13'918.6
2018-Jan-21 08:30N 36°51' E 026°19'919.0
2018-Jan-21 08:00N 36°44' E 026°27'918.3
2018-Jan-21 07:30N 36°37' E 026°35'917.9
2018-Jan-21 07:00N 36°31' E 026°43'  
Track history (hours):
 
Tides and Currents Weather Stations Pressure Air Temp Water Temp Dewpoint Dewpoint Depression Visibility Wind Speed Wind Dir Waves Ship Positions

Independent Accord

Last reported at 2018-Jan-21 12:12 UTC. Time now 2018-Jan-22 02:41 UTC.
Position N 37°54' E 025°48'.

Length 167 m; draft 8.4 m.

Type: Ship (hazmat cat A). MMSI: 636091353.

Date/timePositionNaut miles runAvg speedWind from/ knotsBaromVisibWave heightAir tempDewpointWater temp
2018-Jan-21 12:12N 37°54' E 025°48'419.2
2018-Jan-21 12:00N 37°50' E 025°49'1119.2
2018-Jan-21 11:26N 37°39' E 025°50'818.4
2018-Jan-21 11:01N 37°32' E 025°51'918.3
2018-Jan-21 10:30N 37°23' E 025°57'918.2
2018-Jan-21 10:00N 37°15' E 026°02'918.4
2018-Jan-21 09:30N 37°07' E 026°07'1019.0
2018-Jan-21 09:00N 36°59' E 026°13'918.6
2018-Jan-21 08:30N 36°51' E 026°19'919.0
2018-Jan-21 08:00N 36°44' E 026°27'918.3
2018-Jan-21 07:30N 36°37' E 026°35'917.9
2018-Jan-21 07:00N 36°31' E 026°43'  

Dump ship's entire track history